Terminal Aerodrome Forecast
Issued by NWS

Home | Current Version | Previous Version | Text Only | Print | Product List | Glossary On
Versions: 1 2 3 4 5 6 7 8 9 10 11 12 13 14 15 16 17 18 19 20 21 22 23 24 25 26 27 28 29 30 31 32
560
FTUS43 KDLH 270917 AAB
TAFHIB
TAF AMD
KHIB 270917Z 2709/2806 00000KT P6SM SKC
      TEMPO 2709/2712 2SM BR
     FM271200 24007KT P6SM FEW250
     FM272000 21009KT P6SM SCT150
     FM280200 18006KT P6SM BKN150=

USA.gov is the U.S. government's official web portal to all federal, state and local government web resources and services.